createdAt,value
2019-04-14T00:01:30.634Z,6.05
2019-04-14T00:04:07.295Z,5.88
2019-04-14T00:06:37.647Z,5.53
2019-04-14T00:09:09.596Z,5.44
2019-04-14T00:11:45.928Z,5.35
2019-04-14T00:14:14.686Z,5.59
2019-04-14T00:16:44.515Z,5.69
2019-04-14T00:19:13.284Z,5.73
2019-04-14T00:21:43.194Z,5.66
2019-04-14T00:24:12.207Z,5.73
2019-04-14T00:26:40.827Z,5.79
2019-04-14T00:29:09.407Z,5.86
2019-04-14T00:31:41.205Z,6.03
2019-04-14T00:34:15.917Z,6.12
2019-04-14T00:36:46.234Z,5.81
2019-04-14T00:39:20.502Z,5.71
2019-04-14T00:42:02.147Z,5.60
2019-04-14T00:44:41.017Z,5.47
2019-04-14T00:47:15.659Z,5.40
2019-04-14T00:49:44.390Z,5.47
2019-04-14T00:52:13.038Z,5.41
2019-04-14T00:54:41.682Z,5.36
2019-04-14T00:57:11.338Z,5.36
2019-04-14T00:59:40.112Z,5.49
2019-04-14T01:02:09.824Z,5.48
2019-04-14T01:04:38.477Z,5.55
2019-04-14T01:07:07.020Z,5.60
2019-04-14T01:09:35.496Z,5.74
2019-04-14T01:12:04.110Z,5.44
2019-04-14T01:14:32.676Z,5.26
2019-04-14T01:17:02.629Z,5.18
2019-04-14T01:19:31.376Z,5.05
2019-04-14T01:22:01.039Z,5.09
2019-04-14T01:24:29.609Z,4.84
2019-04-14T01:26:59.451Z,4.89
2019-04-14T01:29:28.211Z,4.78
2019-04-14T01:31:57.852Z,4.86
2019-04-14T01:34:26.375Z,5.01
2019-04-14T01:36:56.031Z,5.24
2019-04-14T01:39:24.610Z,5.34
2019-04-14T01:41:54.224Z,5.48
2019-04-14T01:44:24.229Z,5.66
2019-04-14T01:46:52.801Z,5.57
2019-04-14T01:49:22.487Z,5.36
2019-04-14T01:52:08.657Z,5.35
2019-04-14T01:54:45.290Z,5.11
2019-04-14T01:57:28.500Z,5.18
2019-04-14T01:59:58.910Z,5.33
2019-04-14T02:02:29.121Z,5.33
2019-04-14T02:04:58.034Z,5.20
2019-04-14T02:07:27.623Z,5.28
2019-04-14T02:09:57.569Z,5.35
2019-04-14T02:12:26.284Z,5.56
2019-04-14T02:14:56.186Z,5.50
2019-04-14T02:17:24.823Z,5.46
2019-04-14T02:19:54.538Z,5.67
2019-04-14T02:22:24.447Z,5.64
2019-04-14T02:24:53.041Z,5.50
2019-04-14T02:27:21.632Z,5.37
2019-04-14T02:29:51.547Z,5.31
2019-04-14T02:32:51.208Z,5.38
2019-04-14T02:35:20.893Z,5.55
2019-04-14T02:40:21.531Z,5.66
2019-04-14T02:42:46.870Z,5.71
2019-04-14T02:45:32.388Z,5.72
2019-04-14T02:50:18.298Z,5.70
2019-04-14T02:55:15.591Z,5.94
2019-04-14T02:57:52.117Z,6.01
2019-04-14T03:05:22.203Z,5.33
2019-04-14T03:07:51.576Z,5.33
2019-04-14T03:18:18.685Z,5.32
2019-04-14T03:20:31.869Z,5.19
2019-04-14T03:25:34.248Z,5.29
2019-04-14T03:28:38.744Z,5.31
2019-04-14T03:31:12.250Z,5.43
2019-04-14T03:33:52.493Z,5.54
2019-04-14T03:36:16.754Z,5.30
2019-04-14T03:38:45.220Z,5.22
2019-04-14T03:41:06.110Z,5.03
2019-04-14T03:46:04.750Z,5.14
2019-04-14T03:51:06.338Z,5.42
2019-04-14T03:53:26.279Z,5.51
2019-04-14T03:55:56.653Z,5.53
2019-04-14T03:58:20.577Z,5.41
2019-04-14T04:00:49.411Z,5.57
2019-04-14T04:03:18.185Z,5.65
2019-04-14T04:05:48.038Z,5.62
2019-04-14T04:08:17.933Z,5.67
2019-04-14T04:10:51.113Z,5.49
2019-04-14T04:13:19.747Z,5.35
2019-04-14T04:15:49.757Z,5.02
2019-04-14T04:18:19.980Z,4.96
2019-04-14T04:20:52.922Z,5.01
2019-04-14T04:23:36.087Z,5.20
2019-04-14T04:26:10.226Z,5.26
2019-04-14T04:28:40.708Z,5.33
2019-04-14T04:31:11.048Z,5.29
2019-04-14T04:33:54.360Z,5.31
2019-04-14T04:36:24.866Z,5.21
2019-04-14T04:39:03.938Z,5.18
2019-04-14T04:41:32.972Z,5.25
2019-04-14T04:44:02.910Z,5.47
2019-04-14T04:46:31.509Z,5.46
2019-04-14T04:49:09.887Z,5.18
2019-04-14T04:51:31.115Z,5.15
2019-04-14T04:53:59.856Z,5.11
2019-04-14T04:56:29.675Z,5.15
2019-04-14T04:58:58.926Z,5.08
2019-04-14T05:01:27.714Z,5.17
2019-04-14T05:03:56.301Z,5.33
2019-04-14T05:06:59.499Z,5.38
2019-04-14T05:09:36.703Z,5.32
2019-04-14T05:12:17.918Z,5.33
2019-04-14T05:14:48.085Z,5.42
2019-04-14T05:17:19.135Z,5.53
2019-04-14T05:19:47.810Z,5.73
2019-04-14T05:22:18.241Z,5.64
2019-04-14T05:24:46.774Z,5.51
2019-04-14T05:27:16.714Z,5.45
2019-04-14T05:29:45.415Z,5.43
2019-04-14T05:32:15.139Z,5.45
2019-04-14T05:34:43.811Z,5.44
2019-04-14T05:37:12.259Z,5.43
2019-04-14T05:39:41.875Z,5.44
2019-04-14T05:42:17.169Z,5.39
2019-04-14T05:44:40.913Z,5.37
2019-04-14T05:47:09.551Z,5.33
2019-04-14T05:49:44.463Z,5.20
2019-04-14T05:52:08.429Z,5.30
2019-04-14T05:54:38.206Z,5.41
2019-04-14T05:57:06.734Z,5.46
2019-04-14T05:59:35.401Z,5.23
2019-04-14T06:02:04.797Z,5.31
2019-04-14T06:04:33.458Z,5.15
2019-04-14T06:07:01.977Z,5.22
2019-04-14T06:09:30.542Z,5.41
2019-04-14T06:11:59.136Z,5.69
2019-04-14T06:14:27.738Z,5.61
2019-04-14T06:16:57.432Z,5.49
2019-04-14T06:19:36.484Z,5.44
2019-04-14T06:21:57.015Z,5.53
2019-04-14T06:24:25.647Z,5.61
2019-04-14T06:26:54.131Z,5.82
2019-04-14T06:29:22.685Z,5.76
2019-04-14T06:31:58.815Z,5.94
2019-04-14T06:34:41.163Z,5.82
2019-04-14T06:37:29.534Z,5.69
2019-04-14T06:39:59.742Z,5.87
2019-04-14T06:42:28.328Z,5.97
2019-04-14T06:44:57.129Z,6.05
2019-04-14T06:47:25.730Z,6.26
2019-04-14T06:49:54.910Z,6.44
2019-04-14T06:52:23.485Z,6.50
2019-04-14T06:54:52.081Z,6.71
2019-04-14T06:57:20.758Z,6.67
2019-04-14T06:59:49.255Z,6.79
2019-04-14T07:02:17.790Z,6.74
2019-04-14T07:04:46.346Z,7.12
2019-04-14T07:07:14.936Z,7.66
2019-04-14T07:09:43.558Z,7.70
2019-04-14T07:12:12.362Z,7.82
2019-04-14T07:14:40.852Z,7.79
2019-04-14T07:17:09.565Z,6.89
2019-04-14T07:19:38.164Z,6.80
2019-04-14T07:22:06.731Z,6.80
2019-04-14T07:24:35.418Z,7.47
2019-04-14T07:27:04.022Z,7.47
2019-04-14T07:29:34.241Z,7.66
2019-04-14T07:32:04.426Z,7.66
2019-04-14T07:34:40.967Z,7.56
2019-04-14T07:37:13.976Z,7.79
2019-04-14T07:39:56.084Z,8.33
2019-04-14T07:42:29.145Z,8.70
2019-04-14T07:44:59.297Z,9.00
2019-04-14T07:47:35.562Z,9.20
2019-04-14T07:50:14.424Z,9.03
2019-04-14T07:52:57.134Z,8.89
2019-04-14T07:55:27.282Z,8.84
2019-04-14T07:58:12.587Z,8.92
2019-04-14T08:00:51.891Z,9.01
2019-04-14T08:03:24.772Z,9.00
2019-04-14T08:05:53.392Z,9.51
2019-04-14T08:08:21.925Z,9.62
2019-04-14T08:10:50.578Z,9.63
2019-04-14T08:13:19.092Z,9.93
2019-04-14T08:15:47.734Z,10.31
2019-04-14T08:18:16.356Z,10.61
2019-04-14T08:20:44.965Z,10.38
2019-04-14T08:23:13.571Z,10.35
2019-04-14T08:25:42.216Z,10.41
2019-04-14T08:28:10.809Z,10.42
2019-04-14T08:30:39.433Z,10.65
2019-04-14T08:33:08.033Z,10.69
2019-04-14T08:35:36.609Z,10.78
2019-04-14T08:38:05.590Z,10.90
2019-04-14T08:40:34.252Z,10.78
2019-04-14T08:43:19.791Z,10.78
2019-04-14T08:45:52.528Z,10.67
2019-04-14T08:48:37.755Z,10.79
2019-04-14T08:51:10.928Z,10.86
2019-04-14T08:53:46.956Z,11.33
2019-04-14T08:56:23.112Z,11.54
2019-04-14T08:59:09.669Z,11.37
2019-04-14T09:01:56.354Z,11.41
2019-04-14T09:04:42.986Z,11.55
2019-04-14T09:07:13.156Z,11.88
2019-04-14T09:09:43.429Z,11.82
2019-04-14T09:12:15.641Z,11.78
2019-04-14T09:14:56.392Z,11.78
2019-04-14T09:17:14.445Z,11.78
2019-04-14T09:19:43.093Z,11.51
2019-04-14T09:22:11.631Z,11.90
2019-04-14T09:24:40.284Z,12.04
2019-04-14T09:27:09.886Z,12.47
2019-04-14T09:29:38.501Z,12.82
2019-04-14T09:32:08.983Z,12.66
2019-04-14T09:34:37.616Z,12.54
2019-04-14T09:37:06.236Z,12.54
2019-04-14T09:39:34.717Z,12.50
2019-04-14T09:42:03.385Z,12.55
2019-04-14T09:44:31.975Z,12.83
2019-04-14T09:47:00.565Z,13.05
2019-04-14T09:49:29.129Z,12.84
2019-04-14T09:51:57.819Z,12.93
2019-04-14T09:54:26.439Z,12.91
2019-04-14T09:56:55.092Z,12.85
2019-04-14T09:59:23.818Z,12.90
2019-04-14T10:01:52.483Z,13.11
2019-04-14T10:04:21.058Z,13.19
2019-04-14T10:06:49.692Z,13.27
2019-04-14T10:09:18.414Z,13.00
2019-04-14T10:11:51.177Z,13.09
2019-04-14T10:14:18.605Z,13.21
2019-04-14T10:16:47.187Z,13.28
2019-04-14T10:19:15.993Z,13.38
2019-04-14T10:21:44.606Z,13.59
2019-04-14T10:24:13.238Z,13.58
2019-04-14T10:26:41.845Z,13.85
2019-04-14T10:29:10.514Z,13.98
2019-04-14T10:31:39.234Z,13.89
2019-04-14T10:34:09.899Z,13.95
2019-04-14T10:36:38.175Z,14.04
2019-04-14T10:39:07.690Z,13.73
2019-04-14T10:41:36.341Z,13.64
2019-04-14T10:44:05.051Z,13.81
2019-04-14T10:46:33.575Z,13.79
2019-04-14T10:49:02.156Z,13.56
2019-04-14T10:51:33.924Z,13.62
2019-04-14T10:54:01.120Z,13.77
2019-04-14T10:56:29.656Z,13.85
2019-04-14T10:58:59.656Z,13.75
2019-04-14T11:01:28.212Z,13.95
2019-04-14T11:03:56.793Z,13.94
2019-04-14T11:06:30.013Z,14.01
2019-04-14T11:08:58.659Z,14.26
2019-04-14T11:11:27.368Z,14.46
2019-04-14T11:13:55.955Z,14.81
2019-04-14T11:16:24.558Z,14.61
2019-04-14T11:18:53.243Z,14.43
2019-04-14T11:21:21.950Z,14.47
2019-04-14T11:23:50.564Z,14.77
2019-04-14T11:26:19.185Z,14.82
2019-04-14T11:28:47.684Z,14.48
2019-04-14T11:31:17.915Z,14.72
2019-04-14T11:34:04.761Z,14.97
2019-04-14T11:36:40.947Z,14.70
2019-04-14T11:39:11.059Z,14.67
2019-04-14T11:41:39.617Z,14.83
2019-04-14T11:44:08.341Z,14.96
2019-04-14T11:46:36.950Z,14.62
2019-04-14T11:49:05.693Z,14.21
2019-04-14T11:51:34.303Z,14.18
2019-04-14T11:54:02.991Z,14.28
2019-04-14T11:56:31.591Z,14.10
2019-04-14T11:59:00.432Z,13.83
2019-04-14T12:01:47.007Z,13.93
2019-04-14T12:04:29.506Z,14.14
2019-04-14T12:07:14.778Z,14.27
2019-04-14T12:09:53.733Z,14.45
2019-04-14T12:12:22.410Z,14.71
2019-04-14T12:14:51.005Z,15.02
2019-04-14T12:17:19.640Z,14.76
2019-04-14T12:19:48.251Z,14.90
2019-04-14T12:22:16.894Z,14.99
2019-04-14T12:24:45.399Z,15.14
2019-04-14T12:27:14.600Z,15.36
2019-04-14T12:29:43.365Z,15.45
2019-04-14T12:32:12.844Z,15.45
2019-04-14T12:34:41.427Z,15.35
2019-04-14T12:37:10.061Z,15.23
2019-04-14T12:39:38.510Z,15.23
2019-04-14T12:42:20.793Z,15.26
2019-04-14T12:45:09.198Z,15.16
2019-04-14T12:47:45.378Z,15.19
2019-04-14T12:50:21.554Z,14.85
2019-04-14T12:52:50.262Z,14.65
2019-04-14T12:55:18.803Z,14.55
2019-04-14T12:57:49.302Z,14.55
2019-04-14T13:00:22.754Z,14.89
2019-04-14T13:02:53.073Z,15.19
2019-04-14T13:05:21.664Z,15.28
2019-04-14T13:07:50.304Z,15.16
2019-04-14T13:10:19.952Z,14.88
2019-04-14T13:12:48.564Z,14.89
2019-04-14T13:15:17.148Z,14.93
2019-04-14T13:17:45.704Z,14.88
2019-04-14T13:20:14.368Z,14.97
2019-04-14T13:22:42.987Z,15.06
2019-04-14T13:25:11.843Z,14.64
2019-04-14T13:27:40.485Z,14.31
2019-04-14T13:30:11.845Z,13.96
2019-04-14T13:32:40.350Z,14.14
2019-04-14T13:35:09.081Z,14.48
2019-04-14T13:37:37.675Z,14.63
2019-04-14T13:40:06.765Z,14.53
2019-04-14T13:42:35.386Z,14.83
2019-04-14T13:45:05.191Z,14.77
2019-04-14T13:47:33.817Z,14.95
2019-04-14T13:50:02.647Z,15.13
2019-04-14T13:52:31.307Z,15.09
2019-04-14T13:54:59.879Z,14.30
2019-04-14T13:57:29.547Z,14.32
2019-04-14T13:59:58.015Z,14.42
2019-04-14T14:02:26.647Z,14.39
2019-04-14T14:04:55.274Z,14.59
2019-04-14T14:07:23.952Z,14.53
2019-04-14T14:09:52.525Z,14.29
2019-04-14T14:12:41.207Z,14.37
2019-04-14T14:15:24.942Z,14.49
2019-04-14T14:18:11.005Z,14.53
2019-04-14T14:20:44.247Z,14.65
2019-04-14T14:23:17.201Z,15.11
2019-04-14T14:25:50.205Z,14.85
2019-04-14T14:28:18.881Z,14.58
2019-04-14T14:30:47.471Z,14.61
2019-04-14T14:33:15.926Z,14.79
2019-04-14T14:35:44.517Z,14.74
2019-04-14T14:38:13.169Z,14.74
2019-04-14T14:40:41.776Z,14.89
2019-04-14T14:43:10.457Z,14.84
2019-04-14T14:45:57.969Z,14.88
2019-04-14T14:48:28.140Z,14.93
2019-04-14T14:51:04.178Z,14.39
2019-04-14T14:53:32.737Z,14.17
2019-04-14T14:56:01.415Z,14.07
2019-04-14T14:58:29.944Z,14.27
2019-04-14T15:00:59.301Z,14.30
2019-04-14T15:03:27.968Z,14.31
2019-04-14T15:05:57.074Z,14.18
2019-04-14T15:08:25.742Z,14.23
2019-04-14T15:10:54.301Z,14.13
2019-04-14T15:13:23.127Z,14.17
2019-04-14T15:15:51.756Z,13.94
2019-04-14T15:18:20.384Z,13.61
2019-04-14T15:20:49.025Z,13.47
2019-04-14T15:23:24.963Z,13.54
2019-04-14T15:25:47.959Z,13.54
2019-04-14T15:28:16.592Z,13.45
2019-04-14T15:30:45.254Z,13.38
2019-04-14T15:33:13.902Z,13.61
2019-04-14T15:35:42.553Z,13.68
2019-04-14T15:38:11.112Z,13.50
2019-04-14T15:40:39.709Z,13.48
2019-04-14T15:43:08.249Z,13.74
2019-04-14T15:45:36.953Z,13.53
2019-04-14T15:48:05.946Z,13.31
2019-04-14T15:50:34.622Z,13.31
2019-04-14T15:53:03.222Z,13.48
2019-04-14T15:55:31.845Z,13.84
2019-04-14T15:58:02.018Z,13.90
2019-04-14T16:00:32.208Z,13.79
2019-04-14T16:03:02.462Z,13.50
2019-04-14T16:05:49.117Z,13.17
2019-04-14T16:08:28.598Z,12.96
2019-04-14T16:11:01.790Z,12.87
2019-04-14T16:13:47.030Z,12.59
2019-04-14T16:16:23.267Z,12.40
2019-04-14T16:19:02.558Z,12.43
2019-04-14T16:21:31.177Z,12.29
2019-04-14T16:23:59.873Z,12.21
2019-04-14T16:26:48.191Z,12.24
2019-04-14T16:29:22.257Z,12.42
2019-04-14T16:31:55.299Z,12.41
2019-04-14T16:34:28.454Z,12.32
2019-04-14T16:36:57.691Z,12.13
2019-04-14T16:39:26.293Z,12.04
2019-04-14T16:41:54.811Z,12.02
2019-04-14T16:44:23.415Z,12.21
2019-04-14T16:46:52.049Z,12.17
2019-04-14T16:49:20.690Z,12.26
2019-04-14T16:51:59.864Z,12.12
2019-04-14T16:54:30.158Z,11.97
2019-04-14T16:57:16.757Z,11.81
2019-04-14T16:59:45.421Z,11.72
2019-04-14T17:02:15.103Z,11.69
2019-04-14T17:04:43.668Z,11.93
2019-04-14T17:07:12.338Z,11.96
2019-04-14T17:09:41.041Z,11.90
2019-04-14T17:12:09.715Z,11.69
2019-04-14T17:14:45.666Z,11.44
2019-04-14T17:17:15.920Z,11.32
2019-04-14T17:19:46.203Z,11.20
2019-04-14T17:22:19.326Z,11.11
2019-04-14T17:24:49.599Z,11.07
2019-04-14T17:27:19.839Z,11.04
2019-04-14T17:29:50.068Z,11.07
2019-04-14T17:32:20.264Z,11.04
2019-04-14T17:34:50.533Z,11.01
2019-04-14T17:37:23.508Z,11.15
2019-04-14T17:39:53.767Z,11.28
2019-04-14T17:42:27.136Z,11.38
2019-04-14T17:45:09.381Z,11.29
2019-04-14T17:47:39.612Z,11.09
2019-04-14T17:50:26.448Z,10.93
2019-04-14T17:52:59.484Z,10.96
2019-04-14T17:55:29.880Z,10.93
2019-04-14T17:58:18.755Z,10.93
2019-04-14T18:00:58.239Z,10.82
2019-04-14T18:03:28.452Z,10.65
2019-04-14T18:05:58.704Z,10.54
2019-04-14T18:08:28.975Z,10.53
2019-04-14T18:11:04.997Z,10.59
2019-04-14T18:13:35.286Z,10.77
2019-04-14T18:16:08.352Z,10.99
2019-04-14T18:18:38.613Z,10.90
2019-04-14T18:21:08.852Z,10.70
2019-04-14T18:23:42.862Z,10.60
2019-04-14T18:26:11.475Z,10.68
2019-04-14T18:28:44.476Z,10.73
2019-04-14T18:31:20.682Z,10.71
2019-04-14T18:34:05.843Z,10.59
2019-04-14T18:36:36.217Z,10.49
2019-04-14T18:39:27.126Z,10.35
2019-04-14T18:42:09.058Z,10.22
2019-04-14T18:44:48.302Z,10.28
2019-04-14T18:47:22.263Z,10.41
2019-04-14T18:49:52.533Z,10.56
2019-04-14T18:52:23.581Z,10.41
2019-04-14T18:54:54.899Z,10.30
2019-04-14T18:57:25.456Z,10.06
2019-04-14T18:59:55.844Z,9.90
2019-04-14T19:02:24.699Z,9.83
2019-04-14T19:04:53.590Z,9.89
2019-04-14T19:07:22.389Z,9.78
2019-04-14T19:09:51.193Z,9.88
2019-04-14T19:12:21.717Z,9.88
2019-04-14T19:14:52.122Z,10.04
2019-04-14T19:17:28.196Z,10.04
2019-04-14T19:20:01.865Z,10.01
2019-04-14T19:22:29.059Z,10.15
2019-04-14T19:25:07.345Z,10.32
2019-04-14T19:27:27.862Z,10.23
2019-04-14T19:29:56.792Z,10.01
2019-04-14T19:32:26.147Z,9.95
2019-04-14T19:34:54.693Z,9.77
2019-04-14T19:37:23.232Z,9.65
2019-04-14T19:39:51.846Z,9.59
2019-04-14T19:42:20.493Z,9.76
2019-04-14T19:44:48.962Z,9.69
2019-04-14T19:47:17.494Z,9.84
2019-04-14T19:49:45.981Z,9.93
2019-04-14T19:52:14.629Z,9.87
2019-04-14T19:54:43.285Z,9.65
2019-04-14T19:57:11.877Z,9.64
2019-04-14T19:59:40.572Z,9.91
2019-04-14T20:02:09.212Z,9.99
2019-04-14T20:04:37.894Z,9.75
2019-04-14T20:07:06.513Z,9.71
2019-04-14T20:09:35.166Z,9.55
2019-04-14T20:12:03.825Z,9.58
2019-04-14T20:14:33.210Z,9.47
2019-04-14T20:17:18.514Z,9.32
2019-04-14T20:20:05.175Z,9.16
2019-04-14T20:22:52.569Z,9.07
2019-04-14T20:25:33.918Z,9.03
2019-04-14T20:28:06.949Z,9.17
2019-04-14T20:30:37.312Z,9.29
2019-04-14T20:33:05.941Z,9.43
2019-04-14T20:35:35.000Z,9.46
2019-04-14T20:38:03.757Z,9.40
2019-04-14T20:40:32.306Z,9.13
2019-04-14T20:43:00.941Z,9.12
2019-04-14T20:45:29.557Z,8.88
2019-04-14T20:47:58.214Z,8.76
2019-04-14T20:50:26.777Z,8.73
2019-04-14T20:52:55.433Z,8.74
2019-04-14T20:55:24.033Z,8.75
2019-04-14T20:57:52.668Z,8.75
2019-04-14T21:00:21.982Z,8.60
2019-04-14T21:02:52.342Z,8.58
2019-04-14T21:05:37.962Z,8.58
2019-04-14T21:08:17.240Z,8.46
2019-04-14T21:10:47.321Z,8.58
2019-04-14T21:13:33.855Z,8.32
2019-04-14T21:16:12.651Z,8.28
2019-04-14T21:18:36.080Z,8.22
2019-04-14T21:21:15.329Z,8.15
2019-04-14T21:23:48.725Z,8.04
2019-04-14T21:26:18.994Z,8.02
2019-04-14T21:28:49.193Z,8.02
2019-04-14T21:31:25.514Z,8.10
2019-04-14T21:33:55.658Z,8.10
2019-04-14T21:36:25.903Z,8.20
2019-04-14T21:38:58.864Z,8.18
2019-04-14T21:41:31.998Z,8.18
2019-04-14T21:44:00.639Z,8.20
2019-04-14T21:46:29.345Z,8.26
2019-04-14T21:48:57.854Z,8.14
2019-04-14T21:51:28.049Z,7.93
2019-04-14T21:53:56.729Z,7.74
2019-04-14T21:56:26.969Z,7.63
2019-04-14T21:59:00.151Z,7.63
2019-04-14T22:01:53.895Z,7.59
2019-04-14T22:04:42.412Z,7.80
2019-04-14T22:07:12.775Z,7.89
2019-04-14T22:09:41.698Z,8.06
2019-04-14T22:12:10.523Z,8.13
2019-04-14T22:14:38.962Z,8.19
2019-04-14T22:17:07.663Z,8.15
2019-04-14T22:19:36.269Z,8.34
2019-04-14T22:22:04.872Z,8.43
2019-04-14T22:24:33.442Z,8.39
2019-04-14T22:27:01.928Z,8.24
2019-04-14T22:29:30.544Z,8.09
2019-04-14T22:32:01.525Z,7.95
2019-04-14T22:34:29.806Z,7.81
2019-04-14T22:36:58.447Z,7.89
2019-04-14T22:39:27.012Z,8.10
2019-04-14T22:41:55.529Z,8.29
2019-04-14T22:44:24.130Z,8.40
2019-04-14T22:46:52.770Z,8.38
2019-04-14T22:49:21.310Z,8.23
2019-04-14T22:51:49.891Z,8.11
2019-04-14T22:54:18.451Z,8.24
2019-04-14T22:56:47.053Z,8.48
2019-04-14T22:59:15.545Z,8.52
2019-04-14T23:01:45.735Z,8.46
2019-04-14T23:04:22.143Z,8.25
2019-04-14T23:06:58.413Z,8.31
2019-04-14T23:09:31.351Z,7.99
2019-04-14T23:12:16.860Z,7.88
2019-04-14T23:15:05.296Z,7.95
2019-04-14T23:17:35.463Z,8.12
2019-04-14T23:20:24.786Z,8.05
2019-04-14T23:22:57.715Z,8.13
2019-04-14T23:25:26.354Z,8.18
2019-04-14T23:27:55.110Z,8.22
2019-04-14T23:30:23.945Z,8.29
2019-04-14T23:32:52.536Z,8.41
2019-04-14T23:35:21.186Z,8.26
2019-04-14T23:37:49.708Z,8.26
2019-04-14T23:40:18.323Z,8.12
2019-04-14T23:42:46.906Z,7.91
2019-04-14T23:45:15.526Z,7.87
2019-04-14T23:47:44.046Z,8.06
2019-04-14T23:50:13.795Z,8.20
2019-04-14T23:52:42.394Z,8.26
2019-04-14T23:55:11.060Z,8.28
2019-04-14T23:57:39.579Z,8.45
